createdAt,value
2022-08-17T14:48:08.026Z,99075.18
2022-08-17T14:50:40.564Z,99077.83
2022-08-17T14:53:13.618Z,99082.98
2022-08-17T14:55:41.068Z,99080.17
2022-08-17T14:58:08.877Z,99085.54
2022-08-17T15:00:36.992Z,99087.08
2022-08-17T15:03:04.975Z,99088.71
2022-08-17T15:05:36.706Z,99094.04
2022-08-17T15:08:06.247Z,99099.31
2022-08-17T15:10:34.257Z,99103.12
2022-08-17T15:13:02.177Z,99108.24
2022-08-17T15:15:30.316Z,99111.19
2022-08-17T15:17:59.102Z,99109.68
2022-08-17T15:20:29.564Z,99111.78
2022-08-17T15:22:58.393Z,99113.64
2022-08-17T15:25:29.836Z,99110.73
2022-08-17T15:27:58.214Z,99110.48
2022-08-17T15:30:26.488Z,99105.41
2022-08-17T15:32:56.137Z,99102.23
2022-08-17T15:35:28.069Z,99105.19
2022-08-17T15:38:09.881Z,99099.26
2022-08-17T15:40:46.081Z,99102.95
2022-08-17T15:43:28.302Z,99108.89
2022-08-17T15:46:00.679Z,99108.38
2022-08-17T15:48:41.496Z,99108.67
2022-08-17T15:51:32.020Z,99104.38
2022-08-17T15:54:19.227Z,99114.94
2022-08-17T15:56:50.543Z,99120.67
2022-08-17T15:59:18.996Z,99126.69
2022-08-17T16:03:01.016Z,99140.32
2022-08-17T16:04:33.332Z,99150.89
2022-08-17T16:07:00.702Z,99165.98
2022-08-17T16:09:28.065Z,99169.07
2022-08-17T16:11:56.276Z,99166.52
2022-08-17T16:14:25.613Z,99163.00
2022-08-17T16:17:04.614Z,99156.85
2022-08-17T16:19:33.950Z,99158.23
2022-08-17T16:22:02.115Z,99163.03
2022-08-17T16:24:30.377Z,99167.91
2022-08-17T16:26:57.756Z,99168.33
2022-08-17T16:29:25.033Z,99169.70
2022-08-17T16:31:53.180Z,99171.98
2022-08-17T16:34:20.665Z,99176.19
2022-08-17T16:36:55.242Z,99183.17
2022-08-17T16:39:28.700Z,99181.58
2022-08-17T16:41:57.201Z,99180.64
2022-08-17T16:44:28.615Z,99184.02
2022-08-17T16:46:57.007Z,99180.08
2022-08-17T16:49:37.130Z,99180.11
2022-08-17T16:52:09.373Z,99183.69
2022-08-17T16:54:42.991Z,99184.11
2022-08-17T16:57:12.150Z,99187.31
2022-08-17T16:59:42.620Z,99191.93
2022-08-17T17:02:31.090Z,99192.66
2022-08-17T17:05:25.961Z,99193.70
2022-08-17T17:08:00.686Z,99194.23
2022-08-17T17:10:50.985Z,99194.07
2022-08-17T17:13:31.897Z,99195.06
2022-08-17T17:16:25.930Z,99193.98
2022-08-17T17:19:03.020Z,99188.80
2022-08-17T17:22:02.753Z,99189.23
2022-08-17T17:25:15.088Z,99187.47
2022-08-17T17:28:13.824Z,99193.77
2022-08-17T17:31:19.722Z,99194.18
2022-08-17T17:33:55.124Z,99193.98
2022-08-17T17:36:42.959Z,99196.09
2022-08-17T17:39:18.027Z,99194.77
2022-08-17T17:41:58.602Z,99196.86
2022-08-17T17:44:33.174Z,99195.43
2022-08-17T17:47:03.749Z,99197.85
2022-08-17T17:49:37.875Z,99199.55
2022-08-17T17:52:19.424Z,99202.20
2022-08-17T17:55:28.035Z,99204.23
2022-08-17T17:58:28.113Z,99213.46
2022-08-17T18:01:33.895Z,99212.21
2022-08-17T18:04:17.636Z,99218.85
2022-08-17T18:06:59.958Z,99214.66
2022-08-17T18:09:49.877Z,99220.70
2022-08-17T18:12:45.460Z,99218.11
2022-08-17T18:15:24.923Z,99212.09
2022-08-17T18:18:22.586Z,99213.83
2022-08-17T18:20:58.929Z,99215.84
2022-08-17T18:23:28.584Z,99215.30
2022-08-17T18:25:58.271Z,99216.98
2022-08-17T18:28:42.827Z,99221.06
2022-08-17T18:31:20.322Z,99221.58
2022-08-17T18:33:52.142Z,99223.89
2022-08-17T18:36:36.123Z,99228.33
2022-08-17T18:39:16.147Z,99225.29
2022-08-17T18:41:47.285Z,99222.16
2022-08-17T18:44:30.210Z,99217.41
2022-08-17T18:47:20.500Z,99212.02
2022-08-17T18:49:57.003Z,99212.14
2022-08-17T18:52:31.591Z,99211.88
2022-08-17T18:55:19.469Z,99211.44
2022-08-17T18:58:13.914Z,99209.23
2022-08-17T19:00:45.755Z,99204.33
2022-08-17T19:03:15.677Z,99204.38
2022-08-17T19:05:51.333Z,99205.81
2022-08-17T19:08:24.167Z,99202.60
2022-08-17T19:11:08.159Z,99200.31
2022-08-17T19:13:43.486Z,99204.63
2022-08-17T19:16:22.259Z,99206.81
2022-08-17T19:19:23.158Z,99208.05
2022-08-17T19:22:29.349Z,99210.15
2022-08-17T19:25:12.559Z,99205.61
2022-08-17T19:28:21.655Z,99204.98
2022-08-17T19:31:05.437Z,99206.00
2022-08-17T19:33:33.604Z,99208.57
2022-08-17T19:36:25.778Z,99207.80
2022-08-17T19:39:42.729Z,99210.30
2022-08-17T19:42:28.039Z,99212.27
2022-08-17T19:45:08.608Z,99212.39
2022-08-17T19:47:55.182Z,99209.63
2022-08-17T19:50:43.366Z,99210.39
2022-08-17T19:54:01.516Z,99209.67
2022-08-17T19:56:47.209Z,99210.86
2022-08-17T19:59:53.890Z,99215.51
2022-08-17T20:02:40.698Z,99214.51
2022-08-17T20:06:09.186Z,99221.27
2022-08-17T20:08:39.898Z,99220.52
2022-08-17T20:11:20.792Z,99216.31
2022-08-17T20:14:13.503Z,99214.95
2022-08-17T20:16:41.531Z,99218.01
2022-08-17T20:19:36.369Z,99222.09
2022-08-17T20:22:17.954Z,99220.59
2022-08-17T20:24:57.809Z,99223.59
2022-08-17T20:28:05.911Z,99225.10
2022-08-17T20:30:41.669Z,99224.13
2022-08-17T20:33:26.230Z,99224.20
2022-08-17T20:36:22.256Z,99224.36
2022-08-17T20:38:56.493Z,99220.53
2022-08-17T20:41:29.247Z,99223.55
2022-08-17T20:43:56.401Z,99223.34
2022-08-17T20:46:38.431Z,99223.48
2022-08-17T20:49:08.406Z,99225.24
2022-08-17T20:52:01.639Z,99226.30
2022-08-17T20:54:55.490Z,99224.09
2022-08-17T20:57:31.921Z,99222.33
2022-08-17T21:00:26.615Z,99227.69
2022-08-17T21:03:22.427Z,99234.86
2022-08-17T21:06:17.604Z,99235.94
2022-08-17T21:09:16.946Z,99236.65
2022-08-17T21:12:05.692Z,99238.14
2022-08-17T21:15:20.359Z,99239.64
2022-08-17T21:18:02.601Z,99233.48
2022-08-17T21:20:41.855Z,99234.83
2022-08-17T21:23:56.699Z,99240.95
2022-08-17T21:27:08.663Z,99238.39
2022-08-17T21:30:11.861Z,99241.70
2022-08-17T21:32:42.484Z,99235.61
2022-08-17T21:35:51.952Z,99238.23
2022-08-17T21:38:32.772Z,99236.38
2022-08-17T21:41:00.825Z,99236.45
2022-08-17T21:43:36.051Z,99236.85
2022-08-17T21:46:29.073Z,99235.25
2022-08-17T21:49:13.503Z,99233.60
2022-08-17T21:51:50.566Z,99236.86
2022-08-17T21:54:38.241Z,99240.87
2022-08-17T21:57:15.317Z,99245.95
2022-08-17T21:59:44.110Z,99245.25
2022-08-17T22:02:29.891Z,99250.46
2022-08-17T22:05:14.164Z,99248.51
2022-08-17T22:07:58.603Z,99251.05
2022-08-17T22:10:34.866Z,99247.01
2022-08-17T22:13:17.604Z,99249.84
2022-08-17T22:15:49.439Z,99251.77
2022-08-17T22:18:27.579Z,99251.14
2022-08-17T22:20:57.660Z,99251.27
2022-08-17T22:23:59.017Z,99252.60
2022-08-17T22:27:02.545Z,99246.00
2022-08-17T22:29:53.124Z,99241.05
2022-08-17T22:32:44.426Z,99241.29
2022-08-17T22:35:41.302Z,99242.16
2022-08-17T22:38:17.780Z,99238.98
2022-08-17T22:40:53.421Z,99238.75
2022-08-17T22:43:31.131Z,99233.02
2022-08-17T22:46:07.664Z,99236.30
2022-08-17T22:48:35.145Z,99229.83
2022-08-17T22:51:12.461Z,99230.24
2022-08-17T22:54:12.553Z,99229.39
2022-08-17T22:57:18.774Z,99232.93
2022-08-17T22:59:50.033Z,99232.21
2022-08-17T23:02:35.243Z,99232.05
2022-08-17T23:05:18.394Z,99237.55
2022-08-17T23:07:47.382Z,99232.95
2022-08-17T23:10:14.721Z,99236.44
2022-08-17T23:12:42.340Z,99232.83
2022-08-17T23:15:18.138Z,99234.84
2022-08-17T23:17:45.761Z,99239.30
2022-08-17T23:20:15.674Z,99238.80
2022-08-17T23:22:51.985Z,99238.13
2022-08-17T23:25:33.093Z,99238.67
2022-08-17T23:28:03.132Z,99241.70
2022-08-17T23:30:34.265Z,99239.93
2022-08-17T23:33:06.877Z,99238.02
2022-08-17T23:35:40.114Z,99238.48
2022-08-17T23:38:10.175Z,99239.02
2022-08-17T23:40:39.380Z,99241.35
2022-08-17T23:43:24.425Z,99234.56
2022-08-17T23:45:59.162Z,99237.63
2022-08-17T23:48:35.290Z,99239.05
2022-08-17T23:51:09.320Z,99240.13
2022-08-17T23:53:41.491Z,99244.36
2022-08-17T23:56:11.121Z,99245.98
2022-08-17T23:58:44.390Z,99248.45
